Time;durP1;ratioP1;P1;durP2;ratioP2;P2;SDS_P1;SDS_P2;PMS_P1;PMS_P2;Temp;Humidity;BMP_temperature;BMP_pressure;BME280_temperature;BME280_humidity;BME280_pressure;Samples;Min_cycle;Max_cycle;Signal;HPM_P1;HPM_P2
2023/06/11 00:02:24;;;;;;;3.53;2.15;;;;;;;22.70;43.22;101544.78;5015171;28;97459;-28
2023/06/11 00:04:50;;;;;;;3.13;2.10;;;;;;;22.69;43.25;101546.69;5014914;28;99111;-27
2023/06/11 00:07:16;;;;;;;3.58;1.90;;;;;;;22.63;43.92;101532.63;5013409;28;96678;-27
2023/06/11 00:09:42;;;;;;;4.15;2.45;;;;;;;22.60;44.49;101536.56;5013965;28;96871;-27
2023/06/11 00:12:07;;;;;;;4.90;2.42;;;;;;;22.61;43.52;101543.81;5014838;28;99453;-27
2023/06/11 00:14:33;;;;;;;5.78;3.00;;;;;;;22.54;43.95;101526.13;5014743;28;99260;-27
2023/06/11 00:16:58;;;;;;;4.00;2.47;;;;;;;22.55;44.41;101535.28;5015568;28;96470;-27
2023/06/11 00:19:28;;;;;;;5.13;2.25;;;;;;;22.46;44.66;101534.34;5013765;28;96933;-27
2023/06/11 00:21:56;;;;;;;6.65;2.33;;;;;;;22.45;44.31;101530.72;5013473;28;100896;-27
2023/06/11 00:24:22;;;;;;;4.15;2.30;;;;;;;22.42;44.73;101531.00;5013591;28;100963;-27
2023/06/11 00:26:47;;;;;;;3.72;2.20;;;;;;;22.40;44.93;101541.34;5015099;28;96909;-28
2023/06/11 00:29:13;;;;;;;3.60;2.30;;;;;;;22.40;44.40;101535.81;5014504;28;103263;-26
2023/06/11 00:31:38;;;;;;;6.75;2.53;;;;;;;22.33;44.80;101525.56;5014352;28;97911;-27
2023/06/11 00:34:04;;;;;;;3.67;2.35;;;;;;;22.32;44.62;101532.13;5013896;28;97460;-27
2023/06/11 00:36:29;;;;;;;5.80;2.80;;;;;;;22.26;44.97;101525.31;5015160;28;96755;-27
2023/06/11 00:38:55;;;;;;;4.75;2.53;;;;;;;22.26;45.37;101522.53;5014233;28;96761;-27
2023/06/11 00:41:21;;;;;;;4.10;2.42;;;;;;;22.29;45.28;101529.69;5013128;28;100988;-29
2023/06/11 00:43:52;;;;;;;5.85;2.70;;;;;;;22.25;45.45;101524.44;5014418;28;97829;-27
2023/06/11 00:46:18;;;;;;;5.22;2.85;;;;;;;22.19;45.40;101521.38;5014706;28;96681;-27
2023/06/11 00:48:44;;;;;;;5.43;2.80;;;;;;;22.16;45.64;101516.19;5013905;28;96853;-27
2023/06/11 00:51:11;;;;;;;5.43;3.00;;;;;;;22.09;45.74;101521.44;5014435;28;99051;-27
2023/06/11 00:53:36;;;;;;;4.97;3.30;;;;;;;22.14;45.46;101526.50;5012922;28;101087;-28
2023/06/11 00:56:02;;;;;;;3.55;2.33;;;;;;;22.12;45.82;101531.31;5014107;28;96450;-27
2023/06/11 00:58:29;;;;;;;5.28;2.67;;;;;;;22.09;46.25;101526.09;5014343;28;96805;-27
2023/06/11 01:00:57;;;;;;;4.05;2.60;;;;;;;22.08;46.52;101516.09;5012908;28;101010;-26
2023/06/11 01:03:26;;;;;;;7.15;2.78;;;;;;;22.06;46.45;101519.00;5012932;28;101064;-27
2023/06/11 01:06:02;;;;;;;6.97;2.90;;;;;;;22.00;46.74;101511.31;5013255;28;96628;-27
2023/06/11 01:08:31;;;;;;;4.65;2.83;;;;;;;21.97;46.08;101503.34;5013210;28;96792;-27
2023/06/11 01:10:59;;;;;;;4.00;2.60;;;;;;;21.96;46.23;101507.16;5012639;28;100989;-27
2023/06/11 01:13:25;;;;;;;4.68;2.47;;;;;;;21.90;46.52;101505.00;5014406;28;98470;-27
2023/06/11 01:15:55;;;;;;;4.70;2.85;;;;;;;21.81;46.63;101515.94;5013071;28;96594;-27
2023/06/11 01:18:28;;;;;;;4.30;2.85;;;;;;;21.78;48.01;101505.19;5012994;28;96848;-27
2023/06/11 01:21:02;;;;;;;4.95;2.60;;;;;;;21.79;47.12;101526.25;5012204;28;100888;-27
2023/06/11 01:23:40;;;;;;;5.75;2.85;;;;;;;21.79;47.15;101512.44;5013873;28;97372;-27
2023/06/11 01:26:34;;;;;;;7.88;3.25;;;;;;;21.80;47.77;101514.16;5014371;28;96521;-27
2023/06/11 01:29:01;;;;;;;4.47;2.47;;;;;;;21.79;47.20;101500.56;5014257;28;96653;-27
2023/06/11 01:31:29;;;;;;;4.70;2.80;;;;;;;21.79;47.38;101508.81;5012539;28;101005;-27
2023/06/11 01:33:56;;;;;;;6.53;2.67;;;;;;;21.75;47.46;101512.91;5012950;28;97948;-27
2023/06/11 01:36:24;;;;;;;4.97;2.72;;;;;;;21.76;47.80;101514.63;5012878;28;96544;-27
2023/06/11 01:38:51;;;;;;;4.93;2.80;;;;;;;21.77;47.32;101511.72;5014517;28;96775;-27
2023/06/11 01:41:16;;;;;;;4.55;2.78;;;;;;;21.72;47.71;101505.81;5012357;28;100912;-28
2023/06/11 01:43:42;;;;;;;4.78;2.95;;;;;;;21.75;48.18;101507.38;5012367;28;100878;-26
2023/06/11 01:46:07;;;;;;;5.72;3.10;;;;;;;21.70;47.65;101498.69;5013798;28;96567;-27
2023/06/11 01:48:32;;;;;;;4.88;2.90;;;;;;;21.71;48.77;101509.56;5013953;28;96826;-27
2023/06/11 01:50:59;;;;;;;5.30;2.78;;;;;;;21.71;47.70;101514.22;5017449;28;97445;-27
2023/06/11 01:53:25;;;;;;;5.65;3.05;;;;;;;21.66;48.92;101511.03;5015664;28;101280;-28
2023/06/11 01:55:50;;;;;;;4.22;2.67;;;;;;;21.63;48.22;101513.06;5017602;28;96474;-27
2023/06/11 01:58:18;;;;;;;4.38;3.00;;;;;;;21.61;48.29;101515.13;5017553;28;96772;-27
2023/06/11 02:00:44;;;;;;;4.38;2.55;;;;;;;21.61;48.76;101519.75;5015623;28;101082;-26
2023/06/11 02:03:09;;;;;;;5.03;2.83;;;;;;;21.57;48.43;101505.44;5017132;28;99331;-27
2023/06/11 02:05:35;;;;;;;4.53;2.45;;;;;;;21.56;49.26;101502.81;5017339;28;96482;-26
2023/06/11 02:08:01;;;;;;;5.43;2.92;;;;;;;21.54;48.69;101505.69;5017440;28;96815;-27
2023/06/11 02:10:26;;;;;;;5.55;2.90;;;;;;;21.48;49.38;101502.69;5016533;28;98075;-27
2023/06/11 02:12:52;;;;;;;5.85;3.33;;;;;;;21.47;48.91;101517.50;5016872;28;97366;-27
2023/06/11 02:15:18;;;;;;;6.97;3.00;;;;;;;21.41;49.54;101508.81;5017100;28;96499;-27
2023/06/11 02:17:44;;;;;;;4.43;2.85;;;;;;;21.41;49.57;101508.81;5015748;28;96970;-27
2023/06/11 02:20:09;;;;;;;5.05;2.90;;;;;;;21.42;49.43;101517.94;5016920;28;98030;-27
2023/06/11 02:22:35;;;;;;;4.90;3.33;;;;;;;21.38;49.21;101520.09;5016890;28;98019;-27
2023/06/11 02:25:01;;;;;;;7.43;3.00;;;;;;;21.36;50.40;101515.75;5016999;28;96410;-27
2023/06/11 02:27:26;;;;;;;4.43;2.88;;;;;;;21.33;50.35;101519.69;5017540;28;96823;-27
2023/06/11 02:29:52;;;;;;;6.35;3.30;;;;;;;21.33;50.46;101527.06;5016471;28;99245;-27
2023/06/11 02:32:17;;;;;;;5.03;2.90;;;;;;;21.32;50.33;101526.19;5016553;28;97767;-27
2023/06/11 02:34:42;;;;;;;4.28;3.05;;;;;;;21.27;50.33;101523.00;5015845;28;96729;-27
2023/06/11 02:37:08;;;;;;;7.10;2.75;;;;;;;21.27;50.24;101516.63;5016880;28;96750;-28
2023/06/11 02:39:33;;;;;;;7.43;3.03;;;;;;;21.25;51.05;101526.94;5014998;28;101497;-27
2023/06/11 02:41:59;;;;;;;5.25;2.80;;;;;;;21.21;51.19;101529.09;5016208;28;99973;-28
2023/06/11 02:44:24;;;;;;;10.50;3.25;;;;;;;21.14;50.81;101517.81;5016873;28;96545;-27
2023/06/11 02:46:50;;;;;;;5.03;3.17;;;;;;;21.17;50.77;101527.69;5016326;28;96784;-26
2023/06/11 02:49:15;;;;;;;4.55;2.78;;;;;;;21.11;51.12;101520.00;5016722;28;97391;-27
2023/06/11 02:51:40;;;;;;;6.03;3.05;;;;;;;21.10;51.08;101516.38;5016715;28;97779;-27
2023/06/11 02:54:06;;;;;;;4.63;2.97;;;;;;;21.11;51.98;101523.59;5016651;28;96539;-28
2023/06/11 02:56:32;;;;;;;5.60;2.97;;;;;;;21.05;52.38;101526.97;5015146;28;96952;-27
2023/06/11 02:58:58;;;;;;;5.47;3.17;;;;;;;21.04;51.98;101522.44;5014174;28;100941;-33
2023/06/11 03:01:23;;;;;;;6.35;3.45;;;;;;;21.03;51.94;101523.47;5015370;28;99143;-27
2023/06/11 03:03:48;;;;;;;4.47;3.08;;;;;;;21.00;52.70;101524.66;5016393;28;96604;-26
2023/06/11 03:06:14;;;;;;;7.97;3.67;;;;;;;20.98;52.33;101521.16;5016675;28;96786;-27
2023/06/11 03:08:39;;;;;;;4.72;2.88;;;;;;;20.99;52.16;101524.78;5015907;28;102856;-27
2023/06/11 03:11:04;;;;;;;5.20;3.63;;;;;;;20.98;52.34;101528.56;5016123;28;97256;-27
2023/06/11 03:13:30;;;;;;;5.65;3.60;;;;;;;20.92;52.53;101521.72;5016205;28;96625;-27
2023/06/11 03:15:55;;;;;;;6.53;3.58;;;;;;;20.91;52.50;101524.66;5016364;28;96916;-27
2023/06/11 03:18:23;;;;;;;6.40;3.40;;;;;;;20.89;52.95;101518.41;5015922;28;98417;-27
2023/06/11 03:20:49;;;;;;;5.63;3.03;;;;;;;20.84;53.27;101515.22;5015800;28;99100;-27
2023/06/11 03:23:15;;;;;;;6.28;3.58;;;;;;;20.88;53.04;101522.16;5015270;28;96610;-27
2023/06/11 03:25:42;;;;;;;5.53;3.20;;;;;;;20.74;53.69;101513.34;5014675;28;96880;-27
2023/06/11 03:28:07;;;;;;;7.38;4.03;;;;;;;20.79;52.99;101511.03;4997668;28;101004;-27
2023/06/11 03:30:32;;;;;;;5.47;3.50;;;;;;;20.82;53.22;101506.25;5016073;28;97249;-27
2023/06/11 03:32:58;;;;;;;6.30;3.67;;;;;;;20.78;53.13;101514.81;5014900;28;97843;-27
2023/06/11 03:35:23;;;;;;;5.28;3.45;;;;;;;20.77;53.31;101524.06;5015958;28;96716;-27
2023/06/11 03:37:48;;;;;;;5.60;3.42;;;;;;;20.78;53.00;101522.16;5014062;28;99968;-27
2023/06/11 03:40:14;;;;;;;6.20;3.55;;;;;;;20.80;53.28;101525.66;5014337;28;101058;-27
2023/06/11 03:42:40;;;;;;;5.57;3.10;;;;;;;20.74;53.26;101520.75;5015854;28;96616;-27
2023/06/11 03:45:06;;;;;;;5.32;3.67;;;;;;;20.78;53.05;101531.31;5015626;28;96903;-27
2023/06/11 03:47:31;;;;;;;5.43;3.40;;;;;;;20.76;53.36;101518.69;5014833;28;99493;-29
2023/06/11 03:49:56;;;;;;;7.78;3.72;;;;;;;20.82;53.54;101522.75;5015226;28;99130;-27
2023/06/11 03:52:22;;;;;;;4.43;2.90;;;;;;;20.78;53.31;101523.06;5015882;28;96759;-27
2023/06/11 03:54:47;;;;;;;6.93;4.15;;;;;;;20.80;53.59;101531.16;5016109;28;96797;-28
2023/06/11 03:57:13;;;;;;;5.78;3.53;;;;;;;20.72;53.69;101523.63;5014927;28;111724;-27
2023/06/11 03:59:39;;;;;;;7.28;3.38;;;;;;;20.78;53.68;101530.44;5014653;28;102223;-27
2023/06/11 04:02:04;;;;;;;5.72;3.42;;;;;;;20.81;53.92;101532.03;5015558;28;96667;-27
2023/06/11 04:04:31;;;;;;;6.57;3.63;;;;;;;20.76;54.10;101536.09;5015737;28;96816;-27
2023/06/11 04:06:56;;;;;;;6.10;3.90;;;;;;;20.73;54.23;101539.13;5015214;28;97930;-27
2023/06/11 04:09:23;;;;;;;5.78;3.50;;;;;;;20.70;54.20;101530.28;5015239;28;97323;-27
2023/06/11 04:11:48;;;;;;;6.75;3.97;;;;;;;20.71;54.10;101541.19;5014576;28;96676;-27
2023/06/11 04:14:13;;;;;;;7.13;4.00;;;;;;;20.72;54.29;101542.03;5014691;28;96964;-27
2023/06/11 04:16:39;;;;;;;7.47;3.55;;;;;;;20.69;55.07;101540.44;5015119;28;103667;-27
2023/06/11 04:19:04;;;;;;;6.57;3.65;;;;;;;20.66;55.27;101529.69;5014617;28;99173;-27
2023/06/11 04:21:29;;;;;;;7.43;3.78;;;;;;;20.74;54.64;101542.78;5014719;28;103896;-27
2023/06/11 04:23:55;;;;;;;5.72;3.55;;;;;;;20.68;55.20;101540.56;5014991;28;96833;-27
2023/06/11 04:26:20;;;;;;;7.28;4.05;;;;;;;20.70;54.83;101555.94;5014569;28;99325;-27
2023/06/11 04:28:48;;;;;;;6.15;3.85;;;;;;;20.64;54.95;101534.50;5014586;28;116970;-27
2023/06/11 04:31:14;;;;;;;5.82;3.78;;;;;;;20.65;55.20;101538.97;5015102;28;97235;-27
2023/06/11 04:33:40;;;;;;;5.55;3.78;;;;;;;20.61;54.98;101537.53;5012738;28;96954;-27
2023/06/11 04:36:07;;;;;;;6.70;4.18;;;;;;;20.64;55.07;101542.75;5012776;28;101504;-27
2023/06/11 04:38:37;;;;;;;6.45;3.72;;;;;;;20.65;55.51;101549.13;5013069;28;101638;-27
2023/06/11 04:41:06;;;;;;;6.50;4.30;;;;;;;20.62;56.61;101541.13;5014924;28;96612;-26
2023/06/11 04:43:34;;;;;;;7.38;4.00;;;;;;;20.57;56.45;101534.19;5014868;28;96774;-28
2023/06/11 04:46:00;;;;;;;7.15;4.68;;;;;;;20.56;55.69;101550.84;5014400;28;99883;-27
2023/06/11 04:48:28;;;;;;;8.52;4.07;;;;;;;20.60;56.20;101552.31;5013065;28;101091;-27
2023/06/11 04:50:54;;;;;;;6.68;4.30;;;;;;;20.64;55.61;101552.88;5014747;28;96606;-27
2023/06/11 04:53:27;;;;;;;5.28;3.78;;;;;;;20.65;56.17;101551.88;5015222;28;96769;-27
2023/06/11 04:55:54;;;;;;;6.07;4.30;;;;;;;20.58;56.45;101549.69;5014296;28;99351;-27
2023/06/11 04:58:26;;;;;;;7.40;4.28;;;;;;;20.61;56.87;101556.78;5012888;28;100957;-27
2023/06/11 05:00:56;;;;;;;6.10;3.97;;;;;;;20.70;56.02;101552.31;5014166;28;96600;-27
2023/06/11 05:03:24;;;;;;;5.70;4.00;;;;;;;20.72;55.94;101548.41;5014499;28;96686;-27
2023/06/11 05:05:51;;;;;;;5.78;3.88;;;;;;;20.71;56.36;101543.94;5012905;28;101132;-27
2023/06/11 05:08:21;;;;;;;7.40;3.78;;;;;;;20.76;56.71;101548.97;5014559;28;97267;-27
2023/06/11 05:10:47;;;;;;;6.30;3.80;;;;;;;20.76;56.61;101558.13;5014627;28;96504;-27
2023/06/11 05:13:12;;;;;;;6.50;4.00;;;;;;;20.82;56.50;101548.41;5014593;28;96737;-26
2023/06/11 05:15:38;;;;;;;5.95;4.15;;;;;;;20.84;56.21;101546.38;5014406;28;97903;-27
2023/06/11 05:18:04;;;;;;;7.00;3.42;;;;;;;20.93;55.86;101548.28;5014602;28;97824;-27
2023/06/11 05:20:29;;;;;;;6.03;3.70;;;;;;;20.95;56.59;101550.88;5014202;28;96596;-27
2023/06/11 05:22:59;;;;;;;6.60;4.03;;;;;;;21.02;56.48;101559.44;5014083;28;96902;-28
2023/06/11 05:25:28;;;;;;;5.63;3.70;;;;;;;21.08;55.81;101556.97;5015294;28;101136;-27
2023/06/11 05:27:55;;;;;;;7.00;4.22;;;;;;;21.16;55.97;101557.09;5016274;28;100714;-27
2023/06/11 05:30:24;;;;;;;6.65;3.67;;;;;;;21.23;56.73;101570.31;5016563;28;96726;-27
2023/06/11 05:32:50;;;;;;;6.43;4.22;;;;;;;21.30;56.66;101563.19;5015447;28;96834;-27
2023/06/11 05:35:16;;;;;;;5.63;4.25;;;;;;;21.36;56.11;101559.84;5016055;28;101366;-28
2023/06/11 05:37:42;;;;;;;5.90;3.92;;;;;;;21.43;55.57;101566.56;5017480;28;97257;-26
2023/06/11 05:40:09;;;;;;;6.68;4.40;;;;;;;21.49;55.57;101565.06;5017494;28;96682;-27
2023/06/11 05:42:34;;;;;;;7.20;4.65;;;;;;;21.54;55.82;101559.97;5016606;28;96832;-26
2023/06/11 05:44:59;;;;;;;8.10;4.35;;;;;;;21.51;55.86;101555.63;5017237;28;99428;-27
2023/06/11 05:47:25;;;;;;;6.55;4.18;;;;;;;21.53;55.96;101556.38;5017138;28;99209;-27
2023/06/11 05:49:50;;;;;;;6.95;3.97;;;;;;;21.61;56.12;101564.75;5017125;28;96454;-27
2023/06/11 05:52:16;;;;;;;6.25;4.10;;;;;;;21.73;56.34;101567.34;5017202;28;96641;-27
2023/06/11 05:54:41;;;;;;;6.15;4.18;;;;;;;21.78;56.06;101551.19;5016837;28;108243;-26
2023/06/11 05:57:16;;;;;;;5.80;4.03;;;;;;;21.78;56.43;101548.44;5016681;28;111410;-27
2023/06/11 05:59:42;;;;;;;7.50;4.47;;;;;;;21.92;55.29;101558.13;5015952;28;96735;-26
2023/06/11 06:02:07;;;;;;;6.70;4.57;;;;;;;22.04;55.34;101566.03;5017662;28;96773;-27
2023/06/11 06:04:32;;;;;;;6.10;4.07;;;;;;;22.10;55.37;101552.69;5014974;28;120772;-27
2023/06/11 06:06:58;;;;;;;7.15;4.32;;;;;;;22.21;55.03;101567.16;5016810;28;118819;-27
2023/06/11 06:09:23;;;;;;;5.97;4.25;;;;;;;22.29;55.58;101563.66;5017321;28;96612;-27
2023/06/11 06:11:48;;;;;;;6.72;4.43;;;;;;;22.39;55.14;101569.13;5017137;28;96838;-27
2023/06/11 06:14:14;;;;;;;8.25;4.53;;;;;;;22.52;54.42;101566.84;5016460;28;97391;-27
2023/06/11 06:16:39;;;;;;;5.85;4.22;;;;;;;22.63;54.60;101574.06;5015440;28;100963;-27
2023/06/11 06:19:05;;;;;;;6.80;4.53;;;;;;;22.71;54.37;101576.03;5016199;28;108774;-27
2023/06/11 06:21:30;;;;;;;6.63;4.47;;;;;;;22.75;55.96;101578.31;5017300;28;96668;-27
2023/06/11 06:23:56;;;;;;;7.82;4.63;;;;;;;22.77;54.58;101573.53;5016289;28;99286;-28
2023/06/11 06:26:23;;;;;;;5.43;3.85;;;;;;;22.87;54.33;101576.22;5016685;28;99765;-27
2023/06/11 06:28:48;;;;;;;8.43;4.45;;;;;;;23.00;54.39;101584.13;5016872;28;96534;-27
2023/06/11 06:31:13;;;;;;;7.10;4.57;;;;;;;23.10;54.20;101580.28;5017525;28;96891;-27
2023/06/11 06:33:39;;;;;;;6.22;4.07;;;;;;;23.14;54.63;101578.03;5015550;28;99689;-27
2023/06/11 06:36:05;;;;;;;6.85;4.30;;;;;;;23.23;54.00;101571.56;5015921;28;96812;-27
2023/06/11 06:38:32;;;;;;;7.18;4.25;;;;;;;23.34;53.89;101575.13;5014771;28;96533;-27
2023/06/11 06:40:57;;;;;;;6.78;4.65;;;;;;;23.44;53.65;101576.75;5016568;28;96853;-28
2023/06/11 06:43:22;;;;;;;6.63;4.40;;;;;;;23.59;53.27;101574.25;5015916;28;119067;-27
2023/06/11 06:45:47;;;;;;;4.85;3.78;;;;;;;23.63;53.12;101577.59;5016578;28;97438;-27
2023/06/11 06:48:13;;;;;;;6.40;4.40;;;;;;;23.77;53.56;101578.94;5015833;28;106229;-27
2023/06/11 06:50:38;;;;;;;6.50;4.47;;;;;;;23.82;53.38;101579.31;5016929;28;96833;-27
2023/06/11 06:53:03;;;;;;;5.88;4.10;;;;;;;23.90;53.19;101577.44;5016081;28;109915;-26
2023/06/11 06:55:29;;;;;;;7.45;4.13;;;;;;;23.97;53.07;101583.19;5016640;28;97695;-27
2023/06/11 06:57:54;;;;;;;8.25;4.28;;;;;;;24.00;52.89;101590.28;5016291;28;96530;-27
2023/06/11 07:00:19;;;;;;;6.30;4.18;;;;;;;24.06;52.64;101582.19;5016321;28;96907;-28
2023/06/11 07:02:45;;;;;;;8.07;4.72;;;;;;;24.13;52.78;101577.75;5015413;28;98771;-27
2023/06/11 07:05:12;;;;;;;6.70;4.20;;;;;;;24.22;52.52;101580.53;5016208;28;97759;-27
2023/06/11 07:07:37;;;;;;;6.30;4.25;;;;;;;24.40;52.07;101573.00;5014949;28;96629;-27
2023/06/11 07:10:03;;;;;;;8.05;4.57;;;;;;;24.58;52.23;101582.09;5016178;28;96816;-27
2023/06/11 07:12:28;;;;;;;7.25;4.30;;;;;;;24.63;51.62;101577.97;5016033;28;97489;-27
2023/06/11 07:14:54;;;;;;;7.03;4.30;;;;;;;24.76;51.85;101576.41;5015841;28;99147;-27
2023/06/11 07:17:21;;;;;;;5.80;4.10;;;;;;;24.94;51.61;101587.38;5016211;28;96595;-27
2023/06/11 07:19:46;;;;;;;7.32;4.30;;;;;;;25.02;50.94;101579.06;5016559;28;96742;-28
2023/06/11 07:22:12;;;;;;;8.10;4.00;;;;;;;25.04;50.96;101584.44;5015715;28;111394;-27
2023/06/11 07:24:39;;;;;;;5.07;4.00;;;;;;;25.10;51.07;101575.47;5015831;28;97783;-27
2023/06/11 07:27:05;;;;;;;8.07;4.80;;;;;;;25.36;50.53;101575.31;5014306;28;96572;-27
2023/06/11 07:29:30;;;;;;;8.50;4.30;;;;;;;25.46;50.43;101575.13;5016164;28;96805;-27
2023/06/11 07:31:56;;;;;;;6.00;4.03;;;;;;;25.52;49.98;101576.34;5015786;28;97934;-27
2023/06/11 07:34:21;;;;;;;6.20;4.18;;;;;;;25.66;50.10;101578.41;5014693;28;97787;-27
2023/06/11 07:36:46;;;;;;;5.57;4.03;;;;;;;25.81;49.32;101573.88;5015806;28;96638;-26
2023/06/11 07:39:11;;;;;;;5.60;4.13;;;;;;;25.92;49.20;101569.88;5015156;28;108767;-27
2023/06/11 07:41:37;;;;;;;7.03;4.45;;;;;;;25.92;48.80;101580.13;5015031;28;113381;-27
2023/06/11 07:44:02;;;;;;;5.47;3.83;;;;;;;25.98;48.83;101576.63;5015878;28;97823;-27
2023/06/11 07:46:28;;;;;;;6.03;4.32;;;;;;;25.99;48.78;101567.25;5015851;28;96599;-27
2023/06/11 07:48:53;;;;;;;6.03;3.92;;;;;;;26.16;48.79;101576.41;5015224;28;104120;-27
2023/06/11 07:51:20;;;;;;;5.93;3.88;;;;;;;26.17;48.44;101583.69;5015248;28;97382;-27
2023/06/11 07:53:45;;;;;;;10.70;4.63;;;;;;;26.23;48.73;101572.72;5013948;28;101029;-27
2023/06/11 07:56:11;;;;;;;6.20;4.15;;;;;;;26.43;48.43;101563.94;5015611;28;96468;-27
2023/06/11 07:58:36;;;;;;;6.22;4.10;;;;;;;26.56;48.76;101569.81;5015607;28;96868;-27
2023/06/11 08:01:01;;;;;;;6.35;4.30;;;;;;;26.78;48.23;101572.81;5015110;28;99418;-27
2023/06/11 08:03:27;;;;;;;6.00;4.18;;;;;;;26.79;47.92;101577.31;5014748;28;104108;-27
2023/06/11 08:05:52;;;;;;;5.80;4.10;;;;;;;26.78;48.13;101573.69;5015311;28;96569;-26
2023/06/11 08:08:17;;;;;;;6.30;4.47;;;;;;;26.86;47.73;101567.19;5015770;28;96781;-27
2023/06/11 08:10:45;;;;;;;7.60;3.85;;;;;;;27.00;47.66;101577.53;5015186;28;98313;-27
2023/06/11 08:13:10;;;;;;;5.50;3.72;;;;;;;27.22;47.26;101570.28;5014943;28;98341;-27
2023/06/11 08:15:36;;;;;;;5.45;3.80;;;;;;;27.36;46.73;101579.72;5014818;28;96529;-27
2023/06/11 08:18:01;;;;;;;8.07;3.85;;;;;;;27.41;47.04;101560.56;5014840;28;101680;-27
2023/06/11 08:20:26;;;;;;;7.22;4.28;;;;;;;27.43;47.07;101565.91;5013413;28;100801;-27
2023/06/11 08:22:52;;;;;;;6.78;4.30;;;;;;;27.59;46.43;101573.25;5014999;28;97914;-27
2023/06/11 08:25:17;;;;;;;5.28;3.90;;;;;;;27.65;45.98;101570.59;5014840;28;96714;-27
2023/06/11 08:27:42;;;;;;;7.20;4.10;;;;;;;27.78;46.05;101569.91;5014555;28;106011;-28
2023/06/11 08:30:09;;;;;;;5.57;4.07;;;;;;;27.91;46.19;101569.28;5015010;28;98023;-27
2023/06/11 08:32:34;;;;;;;7.95;3.90;;;;;;;27.98;45.62;101558.25;4996758;28;101240;-28
2023/06/11 08:35:00;;;;;;;5.68;4.20;;;;;;;28.09;46.26;101560.56;5014511;28;96870;-27
2023/06/11 08:37:25;;;;;;;5.25;3.88;;;;;;;28.11;45.94;101552.88;5015190;28;96810;-26
2023/06/11 08:39:51;;;;;;;6.43;4.45;;;;;;;28.13;45.78;101559.97;5013887;28;99274;-27
2023/06/11 08:42:16;;;;;;;9.55;4.57;;;;;;;28.26;45.71;101564.84;5013951;28;117220;-27
2023/06/11 08:44:41;;;;;;;6.18;4.57;;;;;;;28.41;45.09;101561.19;5015272;28;96472;-28
2023/06/11 08:47:09;;;;;;;8.13;4.70;;;;;;;28.47;44.89;101554.88;5014215;28;102476;-27
2023/06/11 08:49:39;;;;;;;8.02;4.30;;;;;;;28.52;44.99;101553.22;5013038;28;101195;-26
2023/06/11 08:52:05;;;;;;;7.28;4.78;;;;;;;28.63;45.04;101551.84;5013157;28;100434;-27
2023/06/11 08:54:31;;;;;;;8.45;4.43;;;;;;;28.80;44.79;101558.91;5014707;28;96657;-27
2023/06/11 08:56:57;;;;;;;6.32;3.95;;;;;;;28.86;44.86;101561.97;5015242;28;96788;-27
2023/06/11 08:59:22;;;;;;;6.53;4.00;;;;;;;28.83;44.96;101559.56;5013854;28;97893;-27
2023/06/11 09:01:50;;;;;;;6.55;4.70;;;;;;;29.00;44.34;101564.69;5014067;28;112980;-27
2023/06/11 09:04:20;;;;;;;8.57;4.50;;;;;;;29.10;44.24;101552.38;5012789;28;96610;-27
2023/06/11 09:06:59;;;;;;;7.05;4.35;;;;;;;29.13;44.30;101555.63;5014816;28;96780;-27
2023/06/11 09:09:25;;;;;;;7.03;4.90;;;;;;;29.19;44.43;101556.75;5012990;28;101237;-27
2023/06/11 09:11:51;;;;;;;7.05;4.25;;;;;;;29.31;44.02;101549.56;5014287;28;97147;-27
2023/06/11 09:14:16;;;;;;;7.72;4.38;;;;;;;29.45;43.89;101552.47;5012595;28;96783;-27
2023/06/11 09:16:44;;;;;;;6.68;4.18;;;;;;;29.49;43.46;101546.28;5012992;28;96822;-27
2023/06/11 09:19:17;;;;;;;7.10;4.97;;;;;;;29.47;43.65;101545.63;5011232;28;100860;-27
2023/06/11 09:21:53;;;;;;;5.28;4.18;;;;;;;29.66;43.65;101551.56;5012837;28;100987;-27
2023/06/11 09:24:19;;;;;;;6.07;3.72;;;;;;;29.58;43.18;101552.56;5014057;28;96702;-27
2023/06/11 09:26:56;;;;;;;8.20;4.43;;;;;;;29.61;43.43;101544.66;5012626;28;96876;-27
2023/06/11 09:29:22;;;;;;;7.95;4.38;;;;;;;29.67;43.03;101556.97;5012072;28;100896;-27
2023/06/11 09:31:47;;;;;;;8.45;4.53;;;;;;;29.79;43.18;101552.53;5012486;28;101685;-27
2023/06/11 09:34:19;;;;;;;6.68;4.25;;;;;;;29.92;43.15;101550.94;5013553;28;96791;-27
2023/06/11 09:36:48;;;;;;;6.35;4.32;;;;;;;30.04;42.50;101541.75;5014513;28;96554;-27
2023/06/11 09:39:15;;;;;;;5.30;3.97;;;;;;;30.09;42.31;101543.06;5013328;28;99320;-27
2023/06/11 09:41:50;;;;;;;5.50;3.75;;;;;;;29.99;42.30;101541.50;5012462;28;101000;-27
2023/06/11 09:44:17;;;;;;;5.93;4.30;;;;;;;29.98;42.69;101544.50;5014081;28;96512;-27
2023/06/11 09:46:43;;;;;;;6.95;4.28;;;;;;;30.14;42.87;101557.28;5012912;28;96900;-27
2023/06/11 09:49:10;;;;;;;5.70;4.13;;;;;;;30.25;42.21;101556.72;5011605;28;100976;-27
2023/06/11 09:51:38;;;;;;;8.60;4.68;;;;;;;30.32;41.87;101551.16;5010561;28;100911;-27
2023/06/11 09:54:07;;;;;;;5.43;3.97;;;;;;;30.41;42.13;101559.16;5012061;28;96646;-26
2023/06/11 09:56:33;;;;;;;6.80;4.10;;;;;;;30.50;42.18;101558.97;5012431;28;96628;-27
2023/06/11 09:59:00;;;;;;;5.50;4.05;;;;;;;30.48;41.14;101561.97;5010497;28;101270;-29
2023/06/11 10:01:25;;;;;;;4.53;3.60;;;;;;;30.57;41.52;101554.28;5009498;28;100828;-30
2023/06/11 10:03:51;;;;;;;5.95;4.38;;;;;;;30.59;41.38;101550.19;5011230;28;97100;-27
2023/06/11 10:06:21;;;;;;;8.07;4.35;;;;;;;30.76;41.25;101550.69;5011356;28;96891;-30
2023/06/11 10:08:51;;;;;;;6.72;4.72;;;;;;;30.82;40.18;101563.84;5009630;28;100922;-27
2023/06/11 10:11:21;;;;;;;6.18;4.05;;;;;;;30.78;40.65;101550.47;5011230;28;100709;-30
2023/06/11 10:13:58;;;;;;;8.47;3.93;;;;;;;30.88;40.11;101560.19;5013280;28;96903;-27
2023/06/11 10:16:25;;;;;;;5.90;4.00;;;;;;;30.83;40.21;101551.59;5014862;28;96818;-29
2023/06/11 10:18:51;;;;;;;7.18;4.18;;;;;;;30.88;40.52;101546.22;5011982;28;101310;-28
2023/06/11 10:21:18;;;;;;;5.43;3.50;;;;;;;30.92;40.53;101559.81;5012729;28;100959;-31
2023/06/11 10:23:50;;;;;;;7.18;3.97;;;;;;;30.97;39.88;101554.44;5012893;28;97234;-31
2023/06/11 10:26:16;;;;;;;5.28;3.88;;;;;;;31.07;40.00;101549.25;5015730;28;96509;-27
2023/06/11 10:28:43;;;;;;;7.03;3.47;;;;;;;31.01;39.70;101542.59;5016594;28;99068;-27
2023/06/11 10:31:09;;;;;;;6.47;3.90;;;;;;;31.19;39.25;101550.34;5015110;28;100650;-27
2023/06/11 10:33:44;;;;;;;5.32;3.45;;;;;;;31.26;39.21;101548.41;5015942;28;96750;-27
2023/06/11 10:36:27;;;;;;;6.07;3.55;;;;;;;31.28;37.38;101560.28;5017090;28;96670;-26
2023/06/11 10:39:10;;;;;;;4.30;2.97;;;;;;;31.26;37.96;101542.81;5015018;28;101024;-27
2023/06/11 10:41:39;;;;;;;6.53;3.47;;;;;;;31.39;37.98;101549.50;5015078;28;101212;-28
2023/06/11 10:44:06;;;;;;;5.38;3.55;;;;;;;31.53;37.88;101552.13;5014767;28;96693;-27
2023/06/11 10:46:32;;;;;;;4.53;3.20;;;;;;;31.68;38.09;101560.28;5015302;28;96829;-27
2023/06/11 10:48:57;;;;;;;3.83;2.85;;;;;;;31.70;38.11;101546.06;5016529;28;97542;-27
2023/06/11 10:51:23;;;;;;;4.85;3.40;;;;;;;31.76;38.40;101550.78;5016279;28;99184;-28
2023/06/11 10:53:58;;;;;;;4.90;3.33;;;;;;;31.83;37.03;101546.03;5016838;28;96771;-27
2023/06/11 10:56:24;;;;;;;5.32;3.63;;;;;;;31.87;37.84;101546.44;5016344;28;96788;-28
2023/06/11 10:58:55;;;;;;;5.03;3.38;;;;;;;31.81;36.92;101547.34;5014864;28;101082;-27
2023/06/11 11:01:21;;;;;;;10.23;3.65;;;;;;;31.88;36.78;101536.97;5016620;28;98154;-27
2023/06/11 11:03:48;;;;;;;5.20;3.42;;;;;;;31.89;36.62;101535.88;5014982;28;96541;-27
2023/06/11 11:06:28;;;;;;;4.22;3.03;;;;;;;31.91;36.74;101537.38;5014937;28;96792;-27
2023/06/11 11:08:57;;;;;;;5.53;3.03;;;;;;;32.04;36.82;101536.53;5015552;28;97950;-27
2023/06/11 11:11:24;;;;;;;5.32;3.05;;;;;;;31.93;36.25;101534.38;5015999;28;97845;-26
2023/06/11 11:13:50;;;;;;;3.83;2.78;;;;;;;31.89;36.58;101535.88;5014937;28;96641;-27
2023/06/11 11:16:18;;;;;;;5.60;2.50;;;;;;;31.94;36.87;101531.38;5014570;28;97657;-28
2023/06/11 11:18:45;;;;;;;4.03;2.70;;;;;;;32.18;36.15;101531.75;5014047;28;101460;-28
2023/06/11 11:21:10;;;;;;;4.07;2.83;;;;;;;32.24;35.74;101536.47;5014416;28;98848;-28